sensor_id;sensor_type;location;lat;lon;timestamp;P1;durP1;ratioP1;P2;durP2;ratioP2
151;SDS011;68;48.792;9.164;2022-11-20T00:00:19;14.93;;;11.85;;
151;SDS011;68;48.792;9.164;2022-11-20T00:02:45;16.30;;;12.45;;
151;SDS011;68;48.792;9.164;2022-11-20T00:05:12;19.50;;;14.20;;
151;SDS011;68;48.792;9.164;2022-11-20T00:07:39;21.98;;;15.32;;
151;SDS011;68;48.792;9.164;2022-11-20T00:10:06;21.67;;;15.80;;
151;SDS011;68;48.792;9.164;2022-11-20T00:12:33;20.48;;;14.20;;
151;SDS011;68;48.792;9.164;2022-11-20T00:15:00;23.73;;;14.40;;
151;SDS011;68;48.792;9.164;2022-11-20T00:17:28;19.42;;;13.68;;
151;SDS011;68;48.792;9.164;2022-11-20T00:19:55;20.38;;;13.73;;
151;SDS011;68;48.792;9.164;2022-11-20T00:22:22;16.75;;;11.90;;
151;SDS011;68;48.792;9.164;2022-11-20T00:24:48;20.13;;;12.43;;
151;SDS011;68;48.792;9.164;2022-11-20T00:27:15;15.52;;;11.15;;
151;SDS011;68;48.792;9.164;2022-11-20T00:29:42;14.68;;;10.70;;
151;SDS011;68;48.792;9.164;2022-11-20T00:32:09;15.93;;;11.10;;
151;SDS011;68;48.792;9.164;2022-11-20T00:34:37;15.63;;;11.05;;
151;SDS011;68;48.792;9.164;2022-11-20T00:37:03;13.32;;;10.00;;
151;SDS011;68;48.792;9.164;2022-11-20T00:39:30;13.02;;;8.73;;
151;SDS011;68;48.792;9.164;2022-11-20T00:41:57;13.45;;;8.70;;
151;SDS011;68;48.792;9.164;2022-11-20T00:44:24;13.45;;;9.05;;
151;SDS011;68;48.792;9.164;2022-11-20T00:46:50;15.70;;;9.38;;
151;SDS011;68;48.792;9.164;2022-11-20T00:49:17;13.75;;;9.68;;
151;SDS011;68;48.792;9.164;2022-11-20T00:51:45;12.90;;;9.30;;
151;SDS011;68;48.792;9.164;2022-11-20T00:54:12;11.95;;;9.48;;
151;SDS011;68;48.792;9.164;2022-11-20T00:56:39;11.27;;;9.02;;
151;SDS011;68;48.792;9.164;2022-11-20T00:59:06;13.43;;;8.20;;
151;SDS011;68;48.792;9.164;2022-11-20T01:01:35;10.43;;;8.38;;
151;SDS011;68;48.792;9.164;2022-11-20T01:04:03;11.48;;;8.45;;
151;SDS011;68;48.792;9.164;2022-11-20T01:06:31;10.93;;;8.00;;
151;SDS011;68;48.792;9.164;2022-11-20T01:09:01;9.77;;;8.52;;
151;SDS011;68;48.792;9.164;2022-11-20T01:11:30;10.63;;;7.55;;
151;SDS011;68;48.792;9.164;2022-11-20T01:13:58;10.05;;;7.78;;
151;SDS011;68;48.792;9.164;2022-11-20T01:16:27;10.85;;;7.65;;
151;SDS011;68;48.792;9.164;2022-11-20T01:18:59;10.57;;;7.72;;
151;SDS011;68;48.792;9.164;2022-11-20T01:21:27;10.93;;;7.85;;
151;SDS011;68;48.792;9.164;2022-11-20T01:23:55;8.90;;;7.40;;
151;SDS011;68;48.792;9.164;2022-11-20T01:26:24;11.77;;;8.20;;
151;SDS011;68;48.792;9.164;2022-11-20T01:28:53;9.20;;;6.90;;
151;SDS011;68;48.792;9.164;2022-11-20T01:31:21;10.23;;;7.10;;
151;SDS011;68;48.792;9.164;2022-11-20T01:33:50;8.88;;;6.72;;
151;SDS011;68;48.792;9.164;2022-11-20T01:36:18;8.27;;;6.70;;
151;SDS011;68;48.792;9.164;2022-11-20T01:38:46;8.55;;;6.70;;
151;SDS011;68;48.792;9.164;2022-11-20T01:41:14;8.40;;;7.03;;
151;SDS011;68;48.792;9.164;2022-11-20T01:43:57;11.32;;;6.50;;
151;SDS011;68;48.792;9.164;2022-11-20T01:46:24;10.23;;;5.80;;
151;SDS011;68;48.792;9.164;2022-11-20T01:48:51;8.15;;;6.30;;
151;SDS011;68;48.792;9.164;2022-11-20T01:51:24;8.68;;;6.65;;
151;SDS011;68;48.792;9.164;2022-11-20T01:53:54;10.75;;;6.72;;
151;SDS011;68;48.792;9.164;2022-11-20T01:56:23;8.73;;;6.68;;
151;SDS011;68;48.792;9.164;2022-11-20T01:58:51;7.53;;;6.35;;
151;SDS011;68;48.792;9.164;2022-11-20T02:01:23;8.73;;;6.45;;
151;SDS011;68;48.792;9.164;2022-11-20T02:03:50;8.23;;;6.88;;
151;SDS011;68;48.792;9.164;2022-11-20T02:06:19;9.27;;;7.22;;
151;SDS011;68;48.792;9.164;2022-11-20T02:08:50;7.63;;;6.20;;
151;SDS011;68;48.792;9.164;2022-11-20T02:11:17;9.88;;;6.95;;
151;SDS011;68;48.792;9.164;2022-11-20T02:13:45;9.45;;;6.50;;
151;SDS011;68;48.792;9.164;2022-11-20T02:16:12;13.18;;;6.80;;
151;SDS011;68;48.792;9.164;2022-11-20T02:18:46;7.43;;;6.10;;
151;SDS011;68;48.792;9.164;2022-11-20T02:21:19;8.57;;;6.57;;
151;SDS011;68;48.792;9.164;2022-11-20T02:23:59;11.65;;;6.20;;
151;SDS011;68;48.792;9.164;2022-11-20T02:26:31;9.93;;;6.20;;
151;SDS011;68;48.792;9.164;2022-11-20T02:29:03;8.98;;;5.85;;
151;SDS011;68;48.792;9.164;2022-11-20T02:31:34;9.30;;;6.65;;
151;SDS011;68;48.792;9.164;2022-11-20T02:34:03;7.35;;;5.75;;
151;SDS011;68;48.792;9.164;2022-11-20T02:36:30;8.07;;;6.40;;
151;SDS011;68;48.792;9.164;2022-11-20T02:39:00;10.68;;;6.50;;
151;SDS011;68;48.792;9.164;2022-11-20T02:41:32;8.23;;;6.03;;
151;SDS011;68;48.792;9.164;2022-11-20T02:44:00;9.88;;;6.55;;
151;SDS011;68;48.792;9.164;2022-11-20T02:46:27;7.80;;;5.75;;
151;SDS011;68;48.792;9.164;2022-11-20T02:48:54;8.85;;;5.97;;
151;SDS011;68;48.792;9.164;2022-11-20T02:51:20;9.68;;;6.20;;
151;SDS011;68;48.792;9.164;2022-11-20T02:53:48;7.63;;;6.15;;
151;SDS011;68;48.792;9.164;2022-11-20T02:56:16;8.52;;;6.00;;
151;SDS011;68;48.792;9.164;2022-11-20T02:58:43;6.45;;;5.55;;
151;SDS011;68;48.792;9.164;2022-11-20T03:01:10;7.57;;;6.00;;
151;SDS011;68;48.792;9.164;2022-11-20T03:03:37;6.95;;;5.80;;
151;SDS011;68;48.792;9.164;2022-11-20T03:06:04;7.55;;;5.75;;
151;SDS011;68;48.792;9.164;2022-11-20T03:08:31;8.70;;;5.95;;
151;SDS011;68;48.792;9.164;2022-11-20T03:11:01;8.88;;;6.43;;
151;SDS011;68;48.792;9.164;2022-11-20T03:13:31;7.07;;;5.90;;
151;SDS011;68;48.792;9.164;2022-11-20T03:15:58;7.05;;;5.70;;
151;SDS011;68;48.792;9.164;2022-11-20T03:18:30;9.00;;;6.25;;
151;SDS011;68;48.792;9.164;2022-11-20T03:20:57;6.53;;;6.20;;
151;SDS011;68;48.792;9.164;2022-11-20T03:23:24;8.02;;;5.82;;
151;SDS011;68;48.792;9.164;2022-11-20T03:25:51;7.40;;;6.20;;
151;SDS011;68;48.792;9.164;2022-11-20T03:28:18;12.10;;;7.30;;
151;SDS011;68;48.792;9.164;2022-11-20T03:30:46;15.88;;;8.15;;
151;SDS011;68;48.792;9.164;2022-11-20T03:33:13;7.40;;;6.10;;
151;SDS011;68;48.792;9.164;2022-11-20T03:35:40;7.82;;;6.55;;
151;SDS011;68;48.792;9.164;2022-11-20T03:38:07;6.93;;;6.45;;
151;SDS011;68;48.792;9.164;2022-11-20T03:40:33;7.63;;;6.40;;
151;SDS011;68;48.792;9.164;2022-11-20T03:43:01;9.95;;;6.70;;
151;SDS011;68;48.792;9.164;2022-11-20T03:45:27;8.80;;;6.60;;
151;SDS011;68;48.792;9.164;2022-11-20T03:47:55;9.35;;;7.53;;
151;SDS011;68;48.792;9.164;2022-11-20T03:50:22;10.32;;;7.40;;
151;SDS011;68;48.792;9.164;2022-11-20T03:52:49;10.15;;;7.18;;
151;SDS011;68;48.792;9.164;2022-11-20T03:55:16;11.30;;;7.57;;
151;SDS011;68;48.792;9.164;2022-11-20T03:57:43;11.32;;;7.82;;
151;SDS011;68;48.792;9.164;2022-11-20T04:00:10;8.65;;;7.03;;
151;SDS011;68;48.792;9.164;2022-11-20T04:02:37;10.23;;;7.70;;
151;SDS011;68;48.792;9.164;2022-11-20T04:05:06;10.10;;;7.65;;
151;SDS011;68;48.792;9.164;2022-11-20T04:07:33;8.95;;;7.55;;
151;SDS011;68;48.792;9.164;2022-11-20T04:10:00;9.57;;;7.90;;
151;SDS011;68;48.792;9.164;2022-11-20T04:12:27;10.05;;;8.10;;
151;SDS011;68;48.792;9.164;2022-11-20T04:14:57;11.68;;;7.72;;
151;SDS011;68;48.792;9.164;2022-11-20T04:17:24;12.70;;;8.52;;
151;SDS011;68;48.792;9.164;2022-11-20T04:19:51;10.02;;;7.72;;
151;SDS011;68;48.792;9.164;2022-11-20T04:22:19;9.10;;;7.50;;
151;SDS011;68;48.792;9.164;2022-11-20T04:24:45;9.98;;;7.63;;
151;SDS011;68;48.792;9.164;2022-11-20T04:27:12;9.77;;;7.80;;
151;SDS011;68;48.792;9.164;2022-11-20T04:29:39;9.48;;;7.50;;
151;SDS011;68;48.792;9.164;2022-11-20T04:32:06;9.45;;;6.82;;
151;SDS011;68;48.792;9.164;2022-11-20T04:34:33;10.25;;;7.70;;
151;SDS011;68;48.792;9.164;2022-11-20T04:37:00;9.85;;;7.30;;
151;SDS011;68;48.792;9.164;2022-11-20T04:39:28;9.20;;;7.20;;
151;SDS011;68;48.792;9.164;2022-11-20T04:41:55;9.43;;;7.40;;
151;SDS011;68;48.792;9.164;2022-11-20T04:44:35;8.55;;;7.40;;
151;SDS011;68;48.792;9.164;2022-11-20T04:47:02;13.02;;;8.07;;
151;SDS011;68;48.792;9.164;2022-11-20T04:49:29;10.50;;;6.55;;
151;SDS011;68;48.792;9.164;2022-11-20T04:51:56;8.50;;;7.55;;
151;SDS011;68;48.792;9.164;2022-11-20T04:54:23;11.27;;;7.07;;
151;SDS011;68;48.792;9.164;2022-11-20T04:56:51;11.25;;;7.40;;
151;SDS011;68;48.792;9.164;2022-11-20T04:59:18;10.57;;;6.68;;
151;SDS011;68;48.792;9.164;2022-11-20T05:01:45;8.75;;;6.88;;
151;SDS011;68;48.792;9.164;2022-11-20T05:04:12;8.55;;;7.00;;
151;SDS011;68;48.792;9.164;2022-11-20T05:06:38;11.65;;;7.78;;
151;SDS011;68;48.792;9.164;2022-11-20T05:09:05;9.85;;;7.20;;
151;SDS011;68;48.792;9.164;2022-11-20T05:11:32;9.20;;;7.22;;
151;SDS011;68;48.792;9.164;2022-11-20T05:14:00;11.82;;;7.60;;
151;SDS011;68;48.792;9.164;2022-11-20T05:16:27;9.05;;;7.18;;
151;SDS011;68;48.792;9.164;2022-11-20T05:18:54;8.57;;;6.70;;
151;SDS011;68;48.792;9.164;2022-11-20T05:21:21;8.52;;;6.35;;
151;SDS011;68;48.792;9.164;2022-11-20T05:23:48;9.18;;;7.13;;
151;SDS011;68;48.792;9.164;2022-11-20T05:26:16;10.27;;;7.10;;
151;SDS011;68;48.792;9.164;2022-11-20T05:28:44;8.02;;;6.60;;
151;SDS011;68;48.792;9.164;2022-11-20T05:31:13;11.43;;;6.75;;
151;SDS011;68;48.792;9.164;2022-11-20T05:33:42;7.25;;;6.00;;
151;SDS011;68;48.792;9.164;2022-11-20T05:36:11;10.57;;;6.60;;
151;SDS011;68;48.792;9.164;2022-11-20T05:38:38;9.88;;;6.70;;
151;SDS011;68;48.792;9.164;2022-11-20T05:41:06;8.50;;;6.18;;
151;SDS011;68;48.792;9.164;2022-11-20T05:43:34;9.32;;;6.18;;
151;SDS011;68;48.792;9.164;2022-11-20T05:46:02;8.70;;;6.70;;
151;SDS011;68;48.792;9.164;2022-11-20T05:48:31;10.27;;;6.47;;
151;SDS011;68;48.792;9.164;2022-11-20T05:50:59;7.38;;;6.32;;
151;SDS011;68;48.792;9.164;2022-11-20T05:53:27;9.57;;;6.40;;
151;SDS011;68;48.792;9.164;2022-11-20T05:55:57;12.40;;;7.10;;
151;SDS011;68;48.792;9.164;2022-11-20T05:58:25;8.63;;;6.57;;
151;SDS011;68;48.792;9.164;2022-11-20T06:00:51;7.70;;;6.15;;
151;SDS011;68;48.792;9.164;2022-11-20T06:03:18;7.07;;;6.65;;
151;SDS011;68;48.792;9.164;2022-11-20T06:05:47;7.78;;;5.88;;
151;SDS011;68;48.792;9.164;2022-11-20T06:08:13;9.27;;;5.93;;
151;SDS011;68;48.792;9.164;2022-11-20T06:10:40;11.25;;;6.57;;
151;SDS011;68;48.792;9.164;2022-11-20T06:13:07;7.80;;;6.38;;
151;SDS011;68;48.792;9.164;2022-11-20T06:15:34;8.93;;;5.65;;
151;SDS011;68;48.792;9.164;2022-11-20T06:18:00;6.90;;;6.05;;
151;SDS011;68;48.792;9.164;2022-11-20T06:20:27;6.30;;;5.70;;
151;SDS011;68;48.792;9.164;2022-11-20T06:22:55;8.10;;;5.63;;
151;SDS011;68;48.792;9.164;2022-11-20T06:25:22;8.05;;;5.97;;
151;SDS011;68;48.792;9.164;2022-11-20T06:27:49;10.27;;;6.50;;
151;SDS011;68;48.792;9.164;2022-11-20T06:30:15;6.93;;;5.75;;
151;SDS011;68;48.792;9.164;2022-11-20T06:32:42;8.57;;;6.63;;
151;SDS011;68;48.792;9.164;2022-11-20T06:35:09;9.20;;;5.88;;
151;SDS011;68;48.792;9.164;2022-11-20T06:37:36;7.18;;;5.75;;
151;SDS011;68;48.792;9.164;2022-11-20T06:40:05;7.90;;;5.50;;
151;SDS011;68;48.792;9.164;2022-11-20T06:42:32;5.93;;;5.60;;
151;SDS011;68;48.792;9.164;2022-11-20T06:44:59;8.15;;;5.50;;
151;SDS011;68;48.792;9.164;2022-11-20T06:47:26;7.43;;;5.90;;
151;SDS011;68;48.792;9.164;2022-11-20T06:49:53;7.03;;;5.50;;
151;SDS011;68;48.792;9.164;2022-11-20T06:52:19;6.85;;;5.47;;
151;SDS011;68;48.792;9.164;2022-11-20T06:54:46;11.98;;;5.25;;
151;SDS011;68;48.792;9.164;2022-11-20T06:57:14;5.90;;;5.07;;
151;SDS011;68;48.792;9.164;2022-11-20T06:59:41;7.07;;;4.90;;
151;SDS011;68;48.792;9.164;2022-11-20T07:02:09;7.13;;;4.70;;
151;SDS011;68;48.792;9.164;2022-11-20T07:04:36;5.70;;;4.40;;
151;SDS011;68;48.792;9.164;2022-11-20T07:07:03;9.27;;;4.95;;
151;SDS011;68;48.792;9.164;2022-11-20T07:09:31;4.55;;;4.30;;
151;SDS011;68;48.792;9.164;2022-11-20T07:11:58;7.75;;;4.63;;
151;SDS011;68;48.792;9.164;2022-11-20T07:14:26;4.82;;;4.55;;
151;SDS011;68;48.792;9.164;2022-11-20T07:16:53;4.82;;;4.45;;
151;SDS011;68;48.792;9.164;2022-11-20T07:19:20;6.85;;;5.07;;
151;SDS011;68;48.792;9.164;2022-11-20T07:21:47;9.43;;;5.50;;
151;SDS011;68;48.792;9.164;2022-11-20T07:24:14;11.25;;;6.20;;
151;SDS011;68;48.792;9.164;2022-11-20T07:26:40;5.75;;;4.78;;
151;SDS011;68;48.792;9.164;2022-11-20T07:29:07;5.55;;;4.80;;
151;SDS011;68;48.792;9.164;2022-11-20T07:31:35;7.38;;;5.80;;
151;SDS011;68;48.792;9.164;2022-11-20T07:34:02;4.85;;;4.53;;
151;SDS011;68;48.792;9.164;2022-11-20T07:36:29;5.95;;;5.00;;
151;SDS011;68;48.792;9.164;2022-11-20T07:38:55;7.75;;;5.88;;
151;SDS011;68;48.792;9.164;2022-11-20T07:41:22;6.47;;;4.90;;
151;SDS011;68;48.792;9.164;2022-11-20T07:43:49;7.57;;;4.65;;
151;SDS011;68;48.792;9.164;2022-11-20T07:46:16;7.32;;;5.55;;
151;SDS011;68;48.792;9.164;2022-11-20T07:48:44;10.27;;;6.45;;
151;SDS011;68;48.792;9.164;2022-11-20T07:51:11;10.45;;;5.10;;
151;SDS011;68;48.792;9.164;2022-11-20T07:53:38;6.65;;;5.38;;
151;SDS011;68;48.792;9.164;2022-11-20T07:56:05;5.97;;;4.57;;
151;SDS011;68;48.792;9.164;2022-11-20T07:58:32;7.40;;;5.18;;
151;SDS011;68;48.792;9.164;2022-11-20T08:01:02;5.40;;;4.75;;
151;SDS011;68;48.792;9.164;2022-11-20T08:03:30;6.10;;;4.60;;
151;SDS011;68;48.792;9.164;2022-11-20T08:05:59;6.25;;;4.90;;
151;SDS011;68;48.792;9.164;2022-11-20T08:08:26;6.35;;;4.38;;
151;SDS011;68;48.792;9.164;2022-11-20T08:10:54;5.72;;;4.55;;
151;SDS011;68;48.792;9.164;2022-11-20T08:13:42;5.03;;;4.38;;
151;SDS011;68;48.792;9.164;2022-11-20T08:16:26;6.38;;;4.35;;
151;SDS011;68;48.792;9.164;2022-11-20T08:18:53;5.15;;;4.50;;
151;SDS011;68;48.792;9.164;2022-11-20T08:21:21;5.95;;;4.80;;
151;SDS011;68;48.792;9.164;2022-11-20T08:23:48;6.78;;;4.85;;
151;SDS011;68;48.792;9.164;2022-11-20T08:26:15;7.32;;;4.90;;
151;SDS011;68;48.792;9.164;2022-11-20T08:28:42;6.45;;;4.53;;
151;SDS011;68;48.792;9.164;2022-11-20T08:31:09;5.05;;;4.28;;
151;SDS011;68;48.792;9.164;2022-11-20T08:33:36;5.22;;;3.90;;
151;SDS011;68;48.792;9.164;2022-11-20T08:36:03;4.25;;;3.60;;
151;SDS011;68;48.792;9.164;2022-11-20T08:38:32;5.40;;;3.58;;
151;SDS011;68;48.792;9.164;2022-11-20T08:40:59;6.05;;;3.50;;
151;SDS011;68;48.792;9.164;2022-11-20T08:43:44;4.88;;;3.80;;
151;SDS011;68;48.792;9.164;2022-11-20T08:46:11;3.85;;;3.20;;
151;SDS011;68;48.792;9.164;2022-11-20T08:48:38;3.20;;;3.00;;
151;SDS011;68;48.792;9.164;2022-11-20T08:51:05;5.05;;;3.80;;
151;SDS011;68;48.792;9.164;2022-11-20T08:53:33;4.35;;;3.28;;
151;SDS011;68;48.792;9.164;2022-11-20T08:56:00;4.85;;;3.17;;
151;SDS011;68;48.792;9.164;2022-11-20T08:58:27;2.90;;;2.70;;
151;SDS011;68;48.792;9.164;2022-11-20T09:00:53;3.42;;;3.25;;
151;SDS011;68;48.792;9.164;2022-11-20T09:03:20;4.53;;;3.10;;
151;SDS011;68;48.792;9.164;2022-11-20T09:05:47;3.13;;;3.00;;
151;SDS011;68;48.792;9.164;2022-11-20T09:08:14;3.05;;;2.85;;
151;SDS011;68;48.792;9.164;2022-11-20T09:10:42;3.13;;;2.90;;
151;SDS011;68;48.792;9.164;2022-11-20T09:13:09;3.20;;;3.00;;
151;SDS011;68;48.792;9.164;2022-11-20T09:15:36;3.05;;;2.85;;
151;SDS011;68;48.792;9.164;2022-11-20T09:18:03;2.97;;;2.78;;
151;SDS011;68;48.792;9.164;2022-11-20T09:20:30;2.75;;;2.53;;
151;SDS011;68;48.792;9.164;2022-11-20T09:22:57;2.85;;;2.65;;
151;SDS011;68;48.792;9.164;2022-11-20T09:25:24;2.80;;;2.70;;
151;SDS011;68;48.792;9.164;2022-11-20T09:27:55;2.70;;;2.40;;
151;SDS011;68;48.792;9.164;2022-11-20T09:30:23;3.45;;;2.70;;
151;SDS011;68;48.792;9.164;2022-11-20T09:32:50;2.65;;;2.47;;
151;SDS011;68;48.792;9.164;2022-11-20T09:35:16;3.00;;;2.60;;
151;SDS011;68;48.792;9.164;2022-11-20T09:37:43;3.25;;;2.72;;
151;SDS011;68;48.792;9.164;2022-11-20T09:40:15;2.58;;;2.45;;
151;SDS011;68;48.792;9.164;2022-11-20T09:42:47;2.63;;;2.47;;
151;SDS011;68;48.792;9.164;2022-11-20T09:45:20;2.92;;;2.50;;
151;SDS011;68;48.792;9.164;2022-11-20T09:47:58;2.60;;;2.30;;
151;SDS011;68;48.792;9.164;2022-11-20T09:50:36;2.53;;;2.35;;
151;SDS011;68;48.792;9.164;2022-11-20T09:53:11;2.53;;;2.33;;
151;SDS011;68;48.792;9.164;2022-11-20T09:55:42;2.65;;;2.15;;
151;SDS011;68;48.792;9.164;2022-11-20T09:58:12;2.58;;;2.40;;
151;SDS011;68;48.792;9.164;2022-11-20T10:00:45;2.40;;;2.20;;
151;SDS011;68;48.792;9.164;2022-11-20T10:03:15;2.38;;;2.17;;
151;SDS011;68;48.792;9.164;2022-11-20T10:05:44;2.45;;;2.28;;
151;SDS011;68;48.792;9.164;2022-11-20T10:08:14;2.70;;;2.55;;
151;SDS011;68;48.792;9.164;2022-11-20T10:10:46;3.15;;;3.03;;
151;SDS011;68;48.792;9.164;2022-11-20T10:13:17;2.90;;;2.60;;
151;SDS011;68;48.792;9.164;2022-11-20T10:15:58;2.55;;;2.35;;
151;SDS011;68;48.792;9.164;2022-11-20T10:18:40;3.88;;;2.50;;
151;SDS011;68;48.792;9.164;2022-11-20T10:21:19;2.78;;;2.58;;
151;SDS011;68;48.792;9.164;2022-11-20T10:23:59;2.67;;;2.50;;
151;SDS011;68;48.792;9.164;2022-11-20T10:26:40;2.65;;;2.45;;
151;SDS011;68;48.792;9.164;2022-11-20T10:29:16;2.80;;;2.60;;
151;SDS011;68;48.792;9.164;2022-11-20T10:31:46;2.67;;;2.47;;
151;SDS011;68;48.792;9.164;2022-11-20T10:34:18;4.15;;;2.80;;
151;SDS011;68;48.792;9.164;2022-11-20T10:36:51;2.47;;;2.30;;
151;SDS011;68;48.792;9.164;2022-11-20T10:39:22;3.50;;;2.75;;
151;SDS011;68;48.792;9.164;2022-11-20T10:41:57;3.15;;;3.00;;
151;SDS011;68;48.792;9.164;2022-11-20T10:44:26;3.58;;;2.75;;
151;SDS011;68;48.792;9.164;2022-11-20T10:47:14;2.80;;;2.60;;
151;SDS011;68;48.792;9.164;2022-11-20T10:49:42;3.78;;;2.83;;
151;SDS011;68;48.792;9.164;2022-11-20T10:52:12;4.15;;;3.00;;
151;SDS011;68;48.792;9.164;2022-11-20T10:54:49;2.70;;;2.60;;
151;SDS011;68;48.792;9.164;2022-11-20T10:57:27;3.42;;;3.22;;
151;SDS011;68;48.792;9.164;2022-11-20T11:00:13;3.30;;;3.10;;
151;SDS011;68;48.792;9.164;2022-11-20T11:02:44;3.05;;;2.85;;
151;SDS011;68;48.792;9.164;2022-11-20T11:05:18;3.47;;;3.35;;
151;SDS011;68;48.792;9.164;2022-11-20T11:07:53;3.20;;;2.95;;
151;SDS011;68;48.792;9.164;2022-11-20T11:10:23;4.60;;;3.50;;
151;SDS011;68;48.792;9.164;2022-11-20T11:12:55;3.92;;;3.10;;
151;SDS011;68;48.792;9.164;2022-11-20T11:15:25;4.45;;;3.70;;
151;SDS011;68;48.792;9.164;2022-11-20T11:17:55;4.75;;;3.45;;
151;SDS011;68;48.792;9.164;2022-11-20T11:20:23;3.72;;;3.53;;
151;SDS011;68;48.792;9.164;2022-11-20T11:22:52;3.38;;;3.17;;
151;SDS011;68;48.792;9.164;2022-11-20T11:25:22;4.20;;;3.20;;
151;SDS011;68;48.792;9.164;2022-11-20T11:27:54;3.55;;;3.25;;
151;SDS011;68;48.792;9.164;2022-11-20T11:30:23;5.57;;;3.70;;
151;SDS011;68;48.792;9.164;2022-11-20T11:32:51;4.10;;;3.90;;
151;SDS011;68;48.792;9.164;2022-11-20T11:35:31;4.78;;;3.90;;
151;SDS011;68;48.792;9.164;2022-11-20T11:38:02;5.07;;;4.35;;
151;SDS011;68;48.792;9.164;2022-11-20T11:40:32;5.20;;;3.70;;
151;SDS011;68;48.792;9.164;2022-11-20T11:43:02;5.57;;;3.83;;
151;SDS011;68;48.792;9.164;2022-11-20T11:45:52;4.55;;;3.75;;
151;SDS011;68;48.792;9.164;2022-11-20T11:48:21;7.00;;;4.40;;
151;SDS011;68;48.792;9.164;2022-11-20T11:50:48;4.68;;;4.15;;
151;SDS011;68;48.792;9.164;2022-11-20T11:53:17;4.00;;;3.08;;
151;SDS011;68;48.792;9.164;2022-11-20T11:55:46;4.10;;;3.33;;
151;SDS011;68;48.792;9.164;2022-11-20T11:58:20;5.07;;;3.70;;
151;SDS011;68;48.792;9.164;2022-11-20T12:01:07;4.40;;;3.10;;
151;SDS011;68;48.792;9.164;2022-11-20T12:03:47;6.18;;;3.00;;
151;SDS011;68;48.792;9.164;2022-11-20T12:06:20;6.10;;;2.85;;
151;SDS011;68;48.792;9.164;2022-11-20T12:08:49;4.30;;;2.80;;
151;SDS011;68;48.792;9.164;2022-11-20T12:11:20;9.13;;;3.65;;
151;SDS011;68;48.792;9.164;2022-11-20T12:13:52;5.18;;;2.97;;
151;SDS011;68;48.792;9.164;2022-11-20T12:16:22;5.63;;;2.80;;
151;SDS011;68;48.792;9.164;2022-11-20T12:18:51;3.70;;;2.40;;
151;SDS011;68;48.792;9.164;2022-11-20T12:21:19;4.88;;;3.10;;
151;SDS011;68;48.792;9.164;2022-11-20T12:23:59;4.18;;;2.90;;
151;SDS011;68;48.792;9.164;2022-11-20T12:26:46;3.20;;;2.38;;
151;SDS011;68;48.792;9.164;2022-11-20T12:29:26;2.60;;;2.45;;
151;SDS011;68;48.792;9.164;2022-11-20T12:32:20;2.83;;;2.47;;
151;SDS011;68;48.792;9.164;2022-11-20T12:35:08;2.92;;;2.47;;
151;SDS011;68;48.792;9.164;2022-11-20T12:37:48;3.60;;;2.60;;
151;SDS011;68;48.792;9.164;2022-11-20T12:40:28;4.25;;;2.60;;
151;SDS011;68;48.792;9.164;2022-11-20T12:43:06;2.88;;;2.45;;
151;SDS011;68;48.792;9.164;2022-11-20T12:46:09;4.97;;;2.80;;
151;SDS011;68;48.792;9.164;2022-11-20T12:48:48;4.18;;;2.80;;
151;SDS011;68;48.792;9.164;2022-11-20T12:51:36;2.67;;;2.47;;
151;SDS011;68;48.792;9.164;2022-11-20T12:54:31;3.90;;;2.55;;
151;SDS011;68;48.792;9.164;2022-11-20T12:57:09;3.80;;;2.80;;
151;SDS011;68;48.792;9.164;2022-11-20T12:59:49;7.60;;;2.40;;
151;SDS011;68;48.792;9.164;2022-11-20T13:02:27;6.97;;;2.70;;
151;SDS011;68;48.792;9.164;2022-11-20T13:05:05;2.50;;;2.30;;
151;SDS011;68;48.792;9.164;2022-11-20T13:07:45;2.85;;;2.40;;
151;SDS011;68;48.792;9.164;2022-11-20T13:10:18;3.63;;;2.50;;
151;SDS011;68;48.792;9.164;2022-11-20T13:12:50;5.75;;;2.60;;
151;SDS011;68;48.792;9.164;2022-11-20T13:15:26;2.80;;;2.33;;
151;SDS011;68;48.792;9.164;2022-11-20T13:18:10;4.55;;;2.53;;
151;SDS011;68;48.792;9.164;2022-11-20T13:20:42;4.50;;;2.50;;
151;SDS011;68;48.792;9.164;2022-11-20T13:23:22;8.15;;;2.50;;
151;SDS011;68;48.792;9.164;2022-11-20T13:25:49;4.53;;;2.40;;
151;SDS011;68;48.792;9.164;2022-11-20T13:28:27;3.60;;;2.30;;
151;SDS011;68;48.792;9.164;2022-11-20T13:30:55;4.80;;;2.80;;
151;SDS011;68;48.792;9.164;2022-11-20T13:33:25;3.05;;;2.50;;
151;SDS011;68;48.792;9.164;2022-11-20T13:35:56;3.78;;;2.65;;
151;SDS011;68;48.792;9.164;2022-11-20T13:38:25;3.65;;;2.60;;
151;SDS011;68;48.792;9.164;2022-11-20T13:40:53;3.85;;;2.75;;
151;SDS011;68;48.792;9.164;2022-11-20T13:43:22;3.63;;;2.30;;
151;SDS011;68;48.792;9.164;2022-11-20T13:45:54;3.58;;;2.38;;
151;SDS011;68;48.792;9.164;2022-11-20T13:48:24;3.63;;;2.45;;
151;SDS011;68;48.792;9.164;2022-11-20T13:50:58;3.13;;;2.40;;
151;SDS011;68;48.792;9.164;2022-11-20T13:53:47;2.65;;;2.47;;
151;SDS011;68;48.792;9.164;2022-11-20T13:56:23;3.33;;;2.15;;
151;SDS011;68;48.792;9.164;2022-11-20T13:58:59;2.35;;;2.20;;
151;SDS011;68;48.792;9.164;2022-11-20T14:01:36;2.45;;;1.90;;
151;SDS011;68;48.792;9.164;2022-11-20T14:04:06;4.53;;;2.55;;
151;SDS011;68;48.792;9.164;2022-11-20T14:06:38;3.45;;;2.30;;
151;SDS011;68;48.792;9.164;2022-11-20T14:09:11;3.38;;;2.60;;
151;SDS011;68;48.792;9.164;2022-11-20T14:11:50;3.30;;;2.40;;
151;SDS011;68;48.792;9.164;2022-11-20T14:14:17;2.92;;;2.50;;
151;SDS011;68;48.792;9.164;2022-11-20T14:16:46;4.07;;;2.70;;
151;SDS011;68;48.792;9.164;2022-11-20T14:19:21;3.88;;;2.50;;
151;SDS011;68;48.792;9.164;2022-11-20T14:21:53;3.13;;;2.30;;
151;SDS011;68;48.792;9.164;2022-11-20T14:24:22;3.80;;;2.35;;
151;SDS011;68;48.792;9.164;2022-11-20T14:26:52;2.78;;;2.30;;
151;SDS011;68;48.792;9.164;2022-11-20T14:29:19;2.95;;;2.63;;
151;SDS011;68;48.792;9.164;2022-11-20T14:31:48;3.13;;;2.42;;
151;SDS011;68;48.792;9.164;2022-11-20T14:34:19;5.35;;;3.35;;
151;SDS011;68;48.792;9.164;2022-11-20T14:36:48;2.65;;;2.40;;
151;SDS011;68;48.792;9.164;2022-11-20T14:39:19;4.68;;;3.03;;
151;SDS011;68;48.792;9.164;2022-11-20T14:41:50;5.35;;;3.25;;
151;SDS011;68;48.792;9.164;2022-11-20T14:44:17;5.03;;;3.63;;
151;SDS011;68;48.792;9.164;2022-11-20T14:46:46;8.02;;;5.00;;
151;SDS011;68;48.792;9.164;2022-11-20T14:49:13;7.22;;;3.60;;
151;SDS011;68;48.792;9.164;2022-11-20T14:51:40;6.90;;;3.65;;
151;SDS011;68;48.792;9.164;2022-11-20T14:54:07;3.65;;;3.28;;
151;SDS011;68;48.792;9.164;2022-11-20T14:56:39;4.07;;;2.90;;
151;SDS011;68;48.792;9.164;2022-11-20T14:59:06;3.47;;;3.00;;
151;SDS011;68;48.792;9.164;2022-11-20T15:01:34;10.98;;;2.70;;
151;SDS011;68;48.792;9.164;2022-11-20T15:04:05;4.05;;;3.17;;
151;SDS011;68;48.792;9.164;2022-11-20T15:06:34;4.30;;;2.92;;
151;SDS011;68;48.792;9.164;2022-11-20T15:09:02;6.00;;;3.45;;
151;SDS011;68;48.792;9.164;2022-11-20T15:11:30;4.55;;;3.22;;
151;SDS011;68;48.792;9.164;2022-11-20T15:13:59;4.15;;;2.90;;
151;SDS011;68;48.792;9.164;2022-11-20T15:16:29;5.47;;;3.53;;
151;SDS011;68;48.792;9.164;2022-11-20T15:18:56;4.45;;;3.33;;
151;SDS011;68;48.792;9.164;2022-11-20T15:21:24;4.97;;;3.70;;
151;SDS011;68;48.792;9.164;2022-11-20T15:23:51;5.95;;;3.92;;
151;SDS011;68;48.792;9.164;2022-11-20T15:26:20;4.75;;;3.50;;
151;SDS011;68;48.792;9.164;2022-11-20T15:28:50;5.70;;;3.53;;
151;SDS011;68;48.792;9.164;2022-11-20T15:31:20;7.32;;;3.83;;
151;SDS011;68;48.792;9.164;2022-11-20T15:33:48;7.63;;;3.80;;
151;SDS011;68;48.792;9.164;2022-11-20T15:36:15;3.35;;;3.13;;
151;SDS011;68;48.792;9.164;2022-11-20T15:38:42;4.68;;;2.92;;
151;SDS011;68;48.792;9.164;2022-11-20T15:41:09;3.83;;;3.20;;
151;SDS011;68;48.792;9.164;2022-11-20T15:43:36;5.57;;;3.33;;
151;SDS011;68;48.792;9.164;2022-11-20T15:46:04;4.60;;;3.40;;
151;SDS011;68;48.792;9.164;2022-11-20T15:48:36;5.32;;;3.95;;
151;SDS011;68;48.792;9.164;2022-11-20T15:51:06;3.95;;;3.35;;
151;SDS011;68;48.792;9.164;2022-11-20T15:53:41;7.10;;;4.00;;
151;SDS011;68;48.792;9.164;2022-11-20T15:56:09;4.78;;;4.00;;
151;SDS011;68;48.792;9.164;2022-11-20T15:58:38;5.13;;;3.40;;
151;SDS011;68;48.792;9.164;2022-11-20T16:01:08;8.05;;;3.50;;
151;SDS011;68;48.792;9.164;2022-11-20T16:03:38;5.10;;;3.72;;
151;SDS011;68;48.792;9.164;2022-11-20T16:06:05;5.55;;;3.90;;
151;SDS011;68;48.792;9.164;2022-11-20T16:08:32;3.47;;;3.28;;
151;SDS011;68;48.792;9.164;2022-11-20T16:10:59;5.63;;;3.03;;
151;SDS011;68;48.792;9.164;2022-11-20T16:13:25;4.10;;;3.60;;